createdAt,value
2023-06-30T00:00:43.567Z,15.75
2023-06-30T00:02:15.251Z,15.71
2023-06-30T00:03:46.877Z,15.71
2023-06-30T00:05:19.666Z,15.70
2023-06-30T00:06:51.458Z,15.67
2023-06-30T00:08:23.134Z,15.65
2023-06-30T00:09:54.752Z,15.60
2023-06-30T00:11:26.347Z,15.60
2023-06-30T00:12:57.986Z,15.60
2023-06-30T00:14:29.894Z,15.68
2023-06-30T00:16:01.448Z,15.72
2023-06-30T00:17:33.070Z,15.74
2023-06-30T00:19:06.317Z,15.77
2023-06-30T00:20:38.017Z,15.79
2023-06-30T00:22:10.148Z,15.78
2023-06-30T00:23:41.751Z,15.76
2023-06-30T00:25:15.252Z,15.71
2023-06-30T00:26:46.987Z,15.65
2023-06-30T00:28:18.758Z,15.60
2023-06-30T00:29:50.262Z,15.56
2023-06-30T00:31:22.366Z,15.52
2023-06-30T00:32:54.023Z,15.53
2023-06-30T00:34:25.628Z,15.52
2023-06-30T00:35:57.167Z,15.54
2023-06-30T00:37:29.170Z,15.55
2023-06-30T00:39:00.702Z,15.54
2023-06-30T00:40:32.213Z,15.53
2023-06-30T00:42:03.916Z,15.50
2023-06-30T00:43:35.488Z,15.48
2023-06-30T00:45:07.291Z,15.47
2023-06-30T00:46:38.862Z,15.45
2023-06-30T00:48:10.503Z,15.45
2023-06-30T00:49:42.125Z,15.43
2023-06-30T00:51:14.362Z,15.38
2023-06-30T00:52:47.936Z,15.32
2023-06-30T00:54:19.532Z,15.30
2023-06-30T00:55:51.409Z,15.32
2023-06-30T00:57:22.967Z,15.31
2023-06-30T00:58:54.783Z,15.30
2023-06-30T01:00:26.271Z,15.27
2023-06-30T01:01:58.865Z,15.27
2023-06-30T01:03:49.693Z,15.26
2023-06-30T01:05:26.656Z,15.25
2023-06-30T01:07:11.790Z,15.23
2023-06-30T01:08:44.459Z,15.19
2023-06-30T01:10:16.789Z,15.19
2023-06-30T01:11:48.366Z,15.20
2023-06-30T01:13:19.958Z,15.20
2023-06-30T01:14:51.480Z,15.22
2023-06-30T01:16:23.193Z,15.17
2023-06-30T01:17:55.380Z,15.15
2023-06-30T01:19:27.041Z,15.11
2023-06-30T01:21:01.036Z,15.07
2023-06-30T01:22:35.174Z,15.03
2023-06-30T01:24:07.965Z,14.96
2023-06-30T01:25:39.794Z,14.94
2023-06-30T01:27:13.764Z,14.92
2023-06-30T01:28:45.846Z,14.88
2023-06-30T01:30:17.425Z,14.89
2023-06-30T01:31:49.033Z,14.91
2023-06-30T01:33:20.616Z,14.95
2023-06-30T01:34:52.442Z,14.93
2023-06-30T01:36:23.930Z,14.87
2023-06-30T01:37:55.836Z,14.83
2023-06-30T01:39:27.338Z,14.76
2023-06-30T01:40:59.077Z,14.72
2023-06-30T01:42:30.687Z,14.69
2023-06-30T01:44:02.416Z,14.67
2023-06-30T01:45:33.956Z,14.66
2023-06-30T01:47:06.531Z,14.66
2023-06-30T01:48:38.475Z,14.66
2023-06-30T01:50:10.438Z,14.62
2023-06-30T01:51:42.022Z,14.62
2023-06-30T01:53:13.580Z,14.62
2023-06-30T01:54:45.088Z,14.63
2023-06-30T01:56:16.683Z,14.65
2023-06-30T01:57:48.168Z,14.61
2023-06-30T01:59:19.742Z,14.60
2023-06-30T02:00:51.389Z,14.57
2023-06-30T02:02:22.999Z,14.58
2023-06-30T02:03:55.299Z,14.58
2023-06-30T02:05:26.994Z,14.60
2023-06-30T02:06:58.526Z,14.58
2023-06-30T02:08:30.241Z,14.56
2023-06-30T02:10:02.247Z,14.58
2023-06-30T02:11:34.041Z,14.59
2023-06-30T02:13:05.624Z,14.55
2023-06-30T02:14:37.145Z,14.52
2023-06-30T02:16:08.990Z,14.57
2023-06-30T02:17:41.765Z,14.56
2023-06-30T02:19:13.439Z,14.55
2023-06-30T02:20:44.950Z,14.52
2023-06-30T02:22:16.618Z,14.51
2023-06-30T02:23:48.158Z,14.49
2023-06-30T02:25:19.658Z,14.45
2023-06-30T02:26:51.253Z,14.42
2023-06-30T02:28:22.813Z,14.36
2023-06-30T02:29:54.467Z,14.29
2023-06-30T02:31:26.551Z,14.23
2023-06-30T02:32:58.946Z,14.18
2023-06-30T02:34:30.619Z,14.15
2023-06-30T02:36:04.278Z,14.12
2023-06-30T02:37:36.110Z,14.07
2023-06-30T02:39:07.672Z,14.02
2023-06-30T02:40:39.701Z,14.03
2023-06-30T02:42:11.188Z,14.00
2023-06-30T02:43:44.162Z,13.97
2023-06-30T02:45:16.148Z,13.93
2023-06-30T02:46:48.035Z,13.92
2023-06-30T02:48:19.590Z,13.91
2023-06-30T02:49:51.119Z,13.91
2023-06-30T02:51:23.057Z,13.94
2023-06-30T02:52:54.842Z,13.94
2023-06-30T02:54:26.487Z,13.95
2023-06-30T02:55:58.904Z,13.98
2023-06-30T02:57:30.460Z,14.00
2023-06-30T02:59:02.009Z,14.01
2023-06-30T03:00:34.962Z,14.07
2023-06-30T03:02:06.609Z,14.05
2023-06-30T03:03:39.440Z,14.05
2023-06-30T03:05:11.383Z,14.07
2023-06-30T03:06:43.078Z,14.12
2023-06-30T03:08:14.618Z,14.10
2023-06-30T03:09:46.185Z,14.08
2023-06-30T03:11:17.760Z,14.04
2023-06-30T03:12:49.771Z,14.03
2023-06-30T03:14:21.361Z,14.02
2023-06-30T03:15:53.234Z,14.02
2023-06-30T03:17:24.834Z,14.01
2023-06-30T03:18:57.246Z,14.04
2023-06-30T03:20:28.970Z,14.02
2023-06-30T03:22:00.800Z,14.04
2023-06-30T03:23:32.333Z,14.06
2023-06-30T03:25:05.272Z,14.09
2023-06-30T03:26:37.091Z,14.13
2023-06-30T03:28:08.697Z,14.11
2023-06-30T03:29:40.182Z,14.07
2023-06-30T03:31:11.731Z,13.99
2023-06-30T03:32:43.543Z,13.97
2023-06-30T03:34:15.145Z,13.99
2023-06-30T03:35:48.199Z,14.00
2023-06-30T03:37:19.843Z,14.03
2023-06-30T03:38:51.391Z,14.05
2023-06-30T03:40:22.941Z,14.12
2023-06-30T03:41:54.456Z,14.17
2023-06-30T03:43:25.994Z,14.24
2023-06-30T03:44:57.576Z,14.30
2023-06-30T03:46:29.299Z,14.37
2023-06-30T03:48:00.893Z,14.44
2023-06-30T03:49:32.581Z,14.52
2023-06-30T03:51:04.064Z,14.62
2023-06-30T03:52:35.804Z,14.73
2023-06-30T03:54:08.281Z,14.83
2023-06-30T03:55:41.562Z,14.90
2023-06-30T03:57:13.142Z,14.94
2023-06-30T03:58:45.136Z,15.00
2023-06-30T04:00:17.152Z,15.07
2023-06-30T04:01:48.915Z,15.14
2023-06-30T04:03:21.020Z,15.19
2023-06-30T04:04:52.651Z,15.19
2023-06-30T04:06:24.313Z,15.18
2023-06-30T04:07:56.018Z,15.25
2023-06-30T04:09:27.765Z,15.33
2023-06-30T04:10:59.312Z,15.42
2023-06-30T04:12:31.352Z,15.45
2023-06-30T04:14:03.202Z,15.51
2023-06-30T04:15:34.708Z,15.60
2023-06-30T04:17:06.791Z,15.70
2023-06-30T04:18:39.010Z,15.77
2023-06-30T04:20:11.106Z,15.85
2023-06-30T04:21:43.150Z,15.91
2023-06-30T04:23:14.736Z,15.86
2023-06-30T04:24:46.310Z,15.79
2023-06-30T04:26:18.349Z,15.80
2023-06-30T04:27:49.901Z,15.77
2023-06-30T04:29:21.436Z,15.77
2023-06-30T04:30:52.957Z,15.82
2023-06-30T04:32:24.497Z,15.90
2023-06-30T04:33:56.072Z,16.06
2023-06-30T04:35:27.637Z,16.19
2023-06-30T04:36:59.204Z,16.32
2023-06-30T04:38:31.148Z,16.41
2023-06-30T04:40:05.901Z,16.48
2023-06-30T04:41:38.790Z,16.58
2023-06-30T04:43:13.788Z,16.67
2023-06-30T04:44:45.576Z,16.75
2023-06-30T04:46:17.349Z,16.85
2023-06-30T04:47:48.937Z,16.92
2023-06-30T04:49:20.472Z,16.97
2023-06-30T04:50:52.014Z,17.08
2023-06-30T04:52:23.535Z,17.02
2023-06-30T04:53:55.249Z,17.09
2023-06-30T04:55:27.134Z,17.21
2023-06-30T04:56:58.645Z,17.29
2023-06-30T04:58:30.214Z,17.34
2023-06-30T05:00:01.948Z,17.40
2023-06-30T05:01:34.319Z,17.52
2023-06-30T05:03:06.016Z,17.62
2023-06-30T05:04:37.723Z,17.74
2023-06-30T05:06:09.446Z,17.80
2023-06-30T05:07:40.984Z,17.89
2023-06-30T05:09:12.578Z,18.02
2023-06-30T05:10:44.174Z,18.06
2023-06-30T05:12:16.918Z,18.13
2023-06-30T05:13:48.631Z,18.13
2023-06-30T05:15:20.250Z,18.19
2023-06-30T05:16:52.434Z,18.24
2023-06-30T05:18:24.101Z,18.29
2023-06-30T05:19:55.801Z,18.39
2023-06-30T05:21:27.419Z,18.40
2023-06-30T05:22:58.995Z,18.30
2023-06-30T05:24:30.547Z,18.32
2023-06-30T05:26:02.168Z,18.24
2023-06-30T05:27:33.695Z,18.17
2023-06-30T05:29:07.314Z,18.17
2023-06-30T05:30:40.451Z,18.25
2023-06-30T05:32:12.054Z,18.25
2023-06-30T05:33:43.620Z,18.33
2023-06-30T05:35:15.240Z,18.30
2023-06-30T05:36:46.828Z,18.20
2023-06-30T05:38:18.405Z,18.13
2023-06-30T05:39:50.232Z,18.20
2023-06-30T05:41:21.802Z,18.26
2023-06-30T05:42:53.450Z,18.29
2023-06-30T05:44:25.656Z,18.41
2023-06-30T05:45:57.341Z,18.63
2023-06-30T05:47:28.901Z,18.86
2023-06-30T05:49:03.568Z,19.07
2023-06-30T05:50:35.110Z,19.17
2023-06-30T05:52:08.421Z,19.23
2023-06-30T05:53:40.542Z,19.26
2023-06-30T05:55:13.093Z,19.27
2023-06-30T05:56:44.870Z,19.16
2023-06-30T05:58:16.382Z,19.13
2023-06-30T05:59:48.057Z,19.19
2023-06-30T06:01:19.889Z,19.28
2023-06-30T06:02:51.600Z,19.37
2023-06-30T06:04:23.445Z,19.57
2023-06-30T06:05:55.274Z,19.69
2023-06-30T06:07:27.152Z,19.81
2023-06-30T06:08:58.882Z,19.89
2023-06-30T06:10:31.035Z,19.98
2023-06-30T06:12:03.546Z,20.01
2023-06-30T06:13:36.128Z,19.97
2023-06-30T06:15:10.644Z,20.06
2023-06-30T06:16:45.995Z,20.15
2023-06-30T06:18:17.637Z,20.13
2023-06-30T06:19:49.602Z,20.15
2023-06-30T06:21:21.388Z,20.19
2023-06-30T06:22:53.041Z,20.37
2023-06-30T06:24:24.695Z,20.45
2023-06-30T06:25:56.325Z,20.50
2023-06-30T06:27:30.130Z,20.55
2023-06-30T06:29:01.765Z,20.70
2023-06-30T06:30:33.921Z,20.78
2023-06-30T06:32:05.741Z,20.85
2023-06-30T06:33:37.363Z,20.93
2023-06-30T06:35:09.094Z,20.97
2023-06-30T06:36:40.684Z,21.16
2023-06-30T06:38:12.265Z,21.20
2023-06-30T06:39:45.590Z,21.16
2023-06-30T06:41:17.158Z,21.16
2023-06-30T06:42:48.743Z,21.27
2023-06-30T06:44:20.450Z,21.26
2023-06-30T06:45:52.148Z,21.36
2023-06-30T06:47:42.069Z,21.54
2023-06-30T06:49:16.306Z,21.70
2023-06-30T06:50:48.508Z,21.81
2023-06-30T06:52:20.138Z,21.86
2023-06-30T06:53:53.179Z,22.05
2023-06-30T06:55:24.963Z,22.25
2023-06-30T06:56:56.731Z,22.48
2023-06-30T06:58:32.011Z,22.53
2023-06-30T07:00:05.737Z,22.59
2023-06-30T07:01:37.938Z,22.67
2023-06-30T07:03:09.686Z,22.74
2023-06-30T07:04:41.230Z,22.83
2023-06-30T07:06:13.117Z,22.87
2023-06-30T07:07:44.844Z,22.90
2023-06-30T07:09:16.669Z,22.90
2023-06-30T07:10:48.562Z,23.04
2023-06-30T07:12:20.117Z,23.15
2023-06-30T07:13:52.282Z,23.23
2023-06-30T07:15:24.527Z,23.32
2023-06-30T07:16:56.555Z,23.47
2023-06-30T07:18:28.298Z,23.68
2023-06-30T07:20:00.344Z,23.88
2023-06-30T07:21:32.980Z,24.06
2023-06-30T07:23:04.596Z,24.13
2023-06-30T07:24:43.305Z,24.06
2023-06-30T07:26:15.620Z,23.82
2023-06-30T07:27:50.654Z,23.66
2023-06-30T07:29:22.689Z,23.61
2023-06-30T07:30:54.402Z,23.71
2023-06-30T07:32:26.248Z,23.85
2023-06-30T07:33:57.829Z,24.01
2023-06-30T07:35:29.778Z,23.95
2023-06-30T07:37:01.698Z,23.93
2023-06-30T07:38:33.815Z,24.00
2023-06-30T07:41:43.758Z,24.26
2023-06-30T07:43:15.331Z,24.27
2023-06-30T07:44:47.979Z,24.26
2023-06-30T07:46:19.715Z,24.34
2023-06-30T07:47:51.447Z,24.51
2023-06-30T07:49:23.363Z,24.38
2023-06-30T07:51:07.813Z,24.37
2023-06-30T07:52:43.987Z,24.56
2023-06-30T07:54:16.507Z,24.59
2023-06-30T07:55:48.617Z,24.64
2023-06-30T07:57:20.340Z,24.76
2023-06-30T07:58:52.321Z,24.83
2023-06-30T08:00:30.138Z,24.71
2023-06-30T08:02:01.876Z,24.62
2023-06-30T08:03:34.676Z,24.63
2023-06-30T08:05:06.984Z,24.75
2023-06-30T08:07:47.990Z,24.87
2023-06-30T08:09:20.555Z,24.84
2023-06-30T08:10:52.203Z,24.99
2023-06-30T08:16:29.430Z,25.57
2023-06-30T08:18:01.301Z,25.33
2023-06-30T08:19:48.153Z,25.21
2023-06-30T08:21:20.969Z,25.28
2023-06-30T08:22:52.712Z,25.39
2023-06-30T08:24:24.862Z,25.54
2023-06-30T08:25:56.749Z,25.74
2023-06-30T08:27:28.534Z,25.63
2023-06-30T08:29:00.164Z,25.50
2023-06-30T08:30:32.136Z,25.55
2023-06-30T08:32:04.109Z,25.58
2023-06-30T08:33:40.384Z,25.58
2023-06-30T08:35:13.097Z,25.67
2023-06-30T08:36:45.052Z,25.78
2023-06-30T08:38:17.214Z,25.82
2023-06-30T08:39:48.994Z,26.03
2023-06-30T08:41:21.101Z,26.27
2023-06-30T08:42:53.168Z,26.28
2023-06-30T08:44:25.205Z,26.28
2023-06-30T08:45:56.975Z,26.06
2023-06-30T08:47:29.813Z,25.95
2023-06-30T08:49:01.544Z,25.96
2023-06-30T08:50:34.315Z,26.01
2023-06-30T08:52:06.642Z,26.07
2023-06-30T08:53:38.699Z,26.16
2023-06-30T08:55:11.288Z,26.27
2023-06-30T08:56:43.191Z,26.28
2023-06-30T08:58:25.705Z,26.15
2023-06-30T08:59:59.113Z,26.08
2023-06-30T09:01:30.837Z,26.14
2023-06-30T09:03:06.011Z,26.20
2023-06-30T09:04:37.967Z,26.19
2023-06-30T09:06:10.038Z,26.27
2023-06-30T09:07:51.391Z,26.33
2023-06-30T09:09:27.254Z,26.51
2023-06-30T09:10:59.670Z,26.67
2023-06-30T09:12:31.897Z,26.63
2023-06-30T09:14:05.451Z,26.45
2023-06-30T09:15:37.476Z,26.39
2023-06-30T09:17:09.380Z,26.21
2023-06-30T09:18:41.025Z,26.16
2023-06-30T09:20:13.190Z,26.19
2023-06-30T09:21:46.106Z,26.33
2023-06-30T09:23:18.162Z,26.42
2023-06-30T09:24:50.048Z,26.55
2023-06-30T09:26:22.163Z,26.54
2023-06-30T09:27:56.488Z,26.53
2023-06-30T09:29:28.293Z,26.58
2023-06-30T09:31:00.199Z,26.64
2023-06-30T09:32:32.896Z,26.61
2023-06-30T09:34:11.701Z,26.56
2023-06-30T09:35:44.188Z,26.46
2023-06-30T09:37:16.520Z,26.49
2023-06-30T09:38:48.176Z,26.45
2023-06-30T09:40:19.837Z,26.52
2023-06-30T09:41:52.306Z,26.56
2023-06-30T09:43:25.229Z,26.55
2023-06-30T09:44:57.038Z,26.68
2023-06-30T09:46:29.797Z,26.93
2023-06-30T09:48:01.603Z,27.11
2023-06-30T09:49:36.929Z,27.31
2023-06-30T09:51:08.994Z,27.43
2023-06-30T09:52:40.692Z,27.58
2023-06-30T09:54:12.756Z,27.84
2023-06-30T09:55:53.526Z,28.04
2023-06-30T09:57:28.760Z,28.11
2023-06-30T09:59:02.756Z,28.10
2023-06-30T10:00:36.087Z,28.06
2023-06-30T10:02:09.374Z,28.05
2023-06-30T10:03:49.656Z,28.01
2023-06-30T10:05:21.850Z,27.86
2023-06-30T10:06:54.037Z,27.73
2023-06-30T10:08:26.038Z,27.73
2023-06-30T10:09:58.121Z,27.77
2023-06-30T10:11:29.925Z,27.87
2023-06-30T10:13:01.827Z,27.96
2023-06-30T10:14:34.151Z,28.07
2023-06-30T10:16:06.627Z,28.27
2023-06-30T10:17:39.059Z,28.35
2023-06-30T10:19:11.552Z,28.28
2023-06-30T10:20:49.140Z,28.43
2023-06-30T10:22:21.759Z,28.62
2023-06-30T10:23:53.529Z,28.75
2023-06-30T10:25:26.222Z,28.85
2023-06-30T10:26:59.019Z,28.94
2023-06-30T10:28:30.955Z,28.89
2023-06-30T10:30:02.745Z,29.00
2023-06-30T10:31:34.849Z,29.08
2023-06-30T10:33:06.913Z,29.08
2023-06-30T10:34:39.203Z,29.16
2023-06-30T10:36:11.340Z,29.19
2023-06-30T10:37:43.378Z,29.21
2023-06-30T10:39:15.534Z,29.14
2023-06-30T10:40:48.069Z,28.96
2023-06-30T10:42:21.671Z,28.76
2023-06-30T10:44:12.245Z,28.84
2023-06-30T10:46:02.517Z,29.05
2023-06-30T10:47:38.361Z,29.20
2023-06-30T10:49:17.987Z,29.31
2023-06-30T10:50:50.143Z,29.40
2023-06-30T10:52:28.913Z,29.37
2023-06-30T10:54:00.610Z,29.07
2023-06-30T10:55:34.465Z,28.90
2023-06-30T10:57:07.223Z,28.73
2023-06-30T10:58:43.405Z,28.70
2023-06-30T11:00:16.279Z,28.80
2023-06-30T11:02:07.024Z,28.85
2023-06-30T11:03:58.109Z,28.80
2023-06-30T11:05:34.270Z,29.01
2023-06-30T11:07:08.612Z,29.14
2023-06-30T11:08:40.408Z,29.09
2023-06-30T11:10:12.434Z,29.02
2023-06-30T11:11:53.070Z,28.94
2023-06-30T11:13:36.738Z,28.92
2023-06-30T11:15:08.597Z,28.79
2023-06-30T11:16:59.500Z,28.75
2023-06-30T11:18:38.147Z,28.74
2023-06-30T11:20:14.205Z,28.84
2023-06-30T11:21:48.804Z,28.99
2023-06-30T11:23:20.876Z,29.15
2023-06-30T11:24:53.283Z,29.34
2023-06-30T11:26:25.528Z,29.49
2023-06-30T11:27:57.939Z,29.64
2023-06-30T11:29:29.949Z,29.69
2023-06-30T11:31:01.825Z,29.72
2023-06-30T11:32:34.848Z,29.85
2023-06-30T11:34:06.680Z,30.00
2023-06-30T11:35:38.868Z,29.84
2023-06-30T11:37:11.050Z,29.68
2023-06-30T11:38:46.837Z,29.81
2023-06-30T11:40:19.475Z,29.97
2023-06-30T11:41:51.435Z,29.94
2023-06-30T11:43:23.851Z,29.86
2023-06-30T11:44:57.758Z,29.79
2023-06-30T11:46:37.623Z,29.74
2023-06-30T11:48:09.394Z,29.78
2023-06-30T11:49:41.467Z,29.95
2023-06-30T11:51:13.474Z,30.11
2023-06-30T11:52:46.251Z,30.24
2023-06-30T11:54:17.817Z,30.47
2023-06-30T11:55:50.798Z,30.68
2023-06-30T11:57:22.471Z,30.70
2023-06-30T11:58:54.680Z,30.71
2023-06-30T12:00:26.489Z,30.75
2023-06-30T12:01:58.286Z,30.82
2023-06-30T12:03:30.130Z,30.86
2023-06-30T12:05:02.833Z,30.93
2023-06-30T12:06:37.477Z,31.03
2023-06-30T12:08:09.139Z,31.10
2023-06-30T12:09:42.206Z,31.03
2023-06-30T12:11:14.615Z,30.84
2023-06-30T12:12:59.389Z,30.59
2023-06-30T12:14:31.822Z,30.21
2023-06-30T12:16:04.901Z,30.02
2023-06-30T12:17:37.845Z,29.98
2023-06-30T12:19:12.201Z,29.86
2023-06-30T12:20:45.173Z,29.64
2023-06-30T12:22:24.393Z,29.54
2023-06-30T12:23:58.396Z,29.54
2023-06-30T12:25:36.804Z,29.67
2023-06-30T12:27:11.453Z,29.70
2023-06-30T12:28:43.100Z,29.80
2023-06-30T12:30:15.918Z,29.82
2023-06-30T12:31:48.897Z,30.00
2023-06-30T12:33:20.748Z,30.18
2023-06-30T12:34:58.023Z,30.22
2023-06-30T12:36:30.198Z,29.96
2023-06-30T12:38:01.906Z,29.78
2023-06-30T12:39:34.088Z,29.69
2023-06-30T12:41:05.836Z,29.74
2023-06-30T12:42:37.444Z,29.73
2023-06-30T12:44:09.362Z,29.63
2023-06-30T12:45:41.273Z,29.59
2023-06-30T12:47:13.197Z,29.68
2023-06-30T12:48:45.529Z,29.82
2023-06-30T12:50:18.968Z,30.01
2023-06-30T12:51:50.752Z,30.16
2023-06-30T12:53:22.837Z,30.21
2023-06-30T12:54:54.611Z,30.24
2023-06-30T12:56:26.958Z,30.47
2023-06-30T12:57:58.661Z,30.68
2023-06-30T12:59:30.482Z,30.83
2023-06-30T13:01:04.891Z,30.98
2023-06-30T13:02:37.223Z,30.99
2023-06-30T13:04:09.337Z,30.94
2023-06-30T13:05:41.836Z,30.79
2023-06-30T13:07:14.158Z,30.80
2023-06-30T13:08:46.622Z,30.92
2023-06-30T13:10:18.727Z,31.05
2023-06-30T13:11:50.992Z,31.06
2023-06-30T13:13:23.264Z,31.03
2023-06-30T13:14:55.365Z,31.03
2023-06-30T13:16:27.087Z,30.83
2023-06-30T13:17:58.941Z,30.57
2023-06-30T13:19:31.022Z,30.53
2023-06-30T13:21:02.847Z,30.60
2023-06-30T13:22:36.259Z,30.71
2023-06-30T13:24:09.939Z,30.65
2023-06-30T13:25:41.870Z,30.65
2023-06-30T13:27:14.076Z,30.69
2023-06-30T13:28:45.744Z,30.58
2023-06-30T13:30:17.460Z,30.60
2023-06-30T13:31:50.223Z,30.70
2023-06-30T13:33:22.970Z,30.81
2023-06-30T13:34:56.085Z,30.89
2023-06-30T13:36:29.323Z,30.95
2023-06-30T13:38:01.015Z,31.01
2023-06-30T13:39:32.730Z,30.97
2023-06-30T13:41:04.666Z,30.97
2023-06-30T13:42:36.350Z,31.04
2023-06-30T13:44:08.306Z,31.13
2023-06-30T13:45:40.442Z,31.31
2023-06-30T13:47:12.246Z,31.44
2023-06-30T13:48:43.847Z,31.44
2023-06-30T13:50:16.768Z,31.31
2023-06-30T13:51:48.714Z,31.19
2023-06-30T13:53:20.992Z,31.10
2023-06-30T13:54:53.239Z,30.95
2023-06-30T13:56:25.029Z,30.81
2023-06-30T13:57:56.759Z,30.67
2023-06-30T13:59:28.358Z,30.53
2023-06-30T14:00:59.957Z,30.55
2023-06-30T14:02:31.693Z,30.54
2023-06-30T14:04:04.241Z,30.54
2023-06-30T14:05:36.299Z,30.62
2023-06-30T14:07:08.197Z,30.65
2023-06-30T14:08:39.990Z,30.67
2023-06-30T14:10:13.356Z,30.71
2023-06-30T14:11:45.099Z,30.75
2023-06-30T14:13:16.687Z,30.85
2023-06-30T14:14:48.797Z,30.96
2023-06-30T14:16:21.451Z,30.96
2023-06-30T14:17:53.426Z,30.98
2023-06-30T14:19:25.197Z,30.86
2023-06-30T14:20:57.067Z,30.81
2023-06-30T14:22:28.931Z,30.62
2023-06-30T14:24:01.153Z,30.50
2023-06-30T14:25:33.409Z,30.48
2023-06-30T14:27:05.262Z,30.46
2023-06-30T14:28:36.992Z,30.42
2023-06-30T14:30:09.210Z,30.49
2023-06-30T14:31:40.932Z,30.44
2023-06-30T14:33:12.818Z,30.35
2023-06-30T14:34:45.107Z,30.35
2023-06-30T14:36:16.732Z,30.33
2023-06-30T14:37:48.957Z,30.41
2023-06-30T14:39:21.019Z,30.50
2023-06-30T14:40:53.539Z,30.61
2023-06-30T14:42:32.101Z,30.63
2023-06-30T14:44:04.668Z,30.70
2023-06-30T14:45:36.634Z,30.77
2023-06-30T14:47:09.910Z,30.87
2023-06-30T14:48:42.417Z,31.01
2023-06-30T14:50:14.113Z,31.12
2023-06-30T14:51:45.690Z,30.99
2023-06-30T14:53:17.290Z,30.83
2023-06-30T14:54:48.833Z,30.71
2023-06-30T14:56:20.693Z,30.53
2023-06-30T14:57:52.276Z,30.38
2023-06-30T14:59:23.861Z,30.35
2023-06-30T15:00:56.005Z,30.37
2023-06-30T15:02:27.725Z,30.46
2023-06-30T15:03:59.474Z,30.57
2023-06-30T15:05:32.326Z,30.62
2023-06-30T15:07:05.574Z,30.61
2023-06-30T15:08:37.169Z,30.38
2023-06-30T15:10:08.969Z,30.06
2023-06-30T15:11:40.668Z,29.90
2023-06-30T15:13:12.299Z,29.83
2023-06-30T15:14:43.856Z,29.81
2023-06-30T15:16:15.814Z,29.84
2023-06-30T15:17:47.410Z,29.93
2023-06-30T15:19:18.998Z,30.02
2023-06-30T15:20:50.650Z,30.12
2023-06-30T15:22:22.244Z,30.18
2023-06-30T15:23:53.850Z,30.27
2023-06-30T15:25:28.942Z,30.23
2023-06-30T15:27:00.698Z,30.27
2023-06-30T15:28:32.374Z,30.36
2023-06-30T15:30:07.379Z,30.43
2023-06-30T15:31:39.523Z,30.50
2023-06-30T15:33:11.210Z,30.52
2023-06-30T15:34:43.235Z,30.52
2023-06-30T15:36:14.801Z,30.52
2023-06-30T15:37:46.405Z,30.56
2023-06-30T15:39:18.049Z,30.60
2023-06-30T15:40:51.272Z,30.54
2023-06-30T15:42:24.738Z,30.43
2023-06-30T15:43:56.343Z,30.41
2023-06-30T15:45:27.918Z,30.42
2023-06-30T15:47:01.638Z,30.38
2023-06-30T15:48:33.372Z,30.29
2023-06-30T15:50:05.143Z,30.28
2023-06-30T15:51:36.860Z,30.20
2023-06-30T15:53:09.616Z,30.04
2023-06-30T15:54:41.203Z,29.97
2023-06-30T15:56:12.853Z,29.95
2023-06-30T15:57:44.611Z,29.90
2023-06-30T15:59:16.237Z,29.80
2023-06-30T16:00:47.910Z,29.63
2023-06-30T16:02:19.975Z,29.53
2023-06-30T16:03:51.654Z,29.38
2023-06-30T16:05:23.940Z,29.24
2023-06-30T16:06:56.957Z,29.13
2023-06-30T16:08:29.421Z,29.04
2023-06-30T16:10:01.229Z,28.96
2023-06-30T16:11:32.784Z,28.89
2023-06-30T16:13:07.829Z,28.86
2023-06-30T16:14:41.722Z,28.82
2023-06-30T16:16:13.414Z,28.82
2023-06-30T16:17:45.091Z,28.78
2023-06-30T16:19:16.816Z,28.74
2023-06-30T16:20:48.419Z,28.72
2023-06-30T16:22:20.116Z,28.75
2023-06-30T16:23:52.145Z,28.80
2023-06-30T16:25:23.874Z,28.83
2023-06-30T16:26:55.478Z,28.82
2023-06-30T16:28:27.098Z,28.79
2023-06-30T16:30:17.287Z,28.77
2023-06-30T16:31:48.881Z,28.68
2023-06-30T16:33:20.633Z,28.56
2023-06-30T16:34:52.374Z,28.47
2023-06-30T16:36:23.922Z,28.42
2023-06-30T16:37:56.328Z,28.41
2023-06-30T16:39:27.911Z,28.43
2023-06-30T16:40:59.534Z,28.50
2023-06-30T16:42:31.120Z,28.61
2023-06-30T16:44:03.384Z,28.63
2023-06-30T16:45:35.098Z,28.64
2023-06-30T16:47:06.797Z,28.58
2023-06-30T16:48:38.489Z,28.57
2023-06-30T16:50:10.330Z,28.55
2023-06-30T16:51:42.963Z,28.56
2023-06-30T16:53:14.581Z,28.50
2023-06-30T16:54:46.928Z,28.48
2023-06-30T16:56:18.537Z,28.45
2023-06-30T16:57:50.077Z,28.47
2023-06-30T16:59:21.606Z,28.41
2023-06-30T17:00:53.624Z,28.35
2023-06-30T17:02:25.293Z,28.29
2023-06-30T17:03:57.256Z,28.26
2023-06-30T17:05:28.865Z,28.27
2023-06-30T17:07:00.584Z,28.26
2023-06-30T17:08:32.476Z,28.25
2023-06-30T17:10:06.004Z,28.21
2023-06-30T17:11:37.999Z,28.14
2023-06-30T17:13:09.617Z,28.07
2023-06-30T17:14:42.997Z,28.02
2023-06-30T17:16:15.232Z,27.92
2023-06-30T17:17:46.885Z,27.85
2023-06-30T17:19:18.432Z,27.77
2023-06-30T17:20:50.146Z,27.73
2023-06-30T17:22:21.818Z,27.64
2023-06-30T17:23:53.627Z,27.57
2023-06-30T17:25:25.206Z,27.51
2023-06-30T17:26:57.028Z,27.48
2023-06-30T17:28:28.539Z,27.44
2023-06-30T17:30:00.071Z,27.41
2023-06-30T17:31:32.354Z,27.35
2023-06-30T17:33:04.397Z,27.37
2023-06-30T17:34:36.054Z,27.36
2023-06-30T17:36:09.913Z,27.34
2023-06-30T17:37:42.924Z,27.27
2023-06-30T17:39:14.921Z,27.23
2023-06-30T17:40:46.961Z,27.17
2023-06-30T17:42:18.876Z,27.14
2023-06-30T17:43:50.664Z,27.09
2023-06-30T17:45:22.416Z,27.02
2023-06-30T17:46:54.310Z,26.94
2023-06-30T17:48:25.948Z,26.91
2023-06-30T17:49:57.670Z,26.83
2023-06-30T17:51:29.261Z,26.74
2023-06-30T17:53:00.971Z,26.65
2023-06-30T17:54:32.537Z,26.50
2023-06-30T17:56:04.264Z,26.36
2023-06-30T17:57:36.003Z,26.22
2023-06-30T17:59:08.077Z,26.13
2023-06-30T18:00:39.693Z,26.02
2023-06-30T18:02:11.477Z,25.95
2023-06-30T18:03:43.319Z,25.91
2023-06-30T18:05:15.178Z,25.87
2023-06-30T18:07:05.210Z,25.84
2023-06-30T18:08:37.248Z,25.81
2023-06-30T18:10:12.067Z,25.75
2023-06-30T18:11:43.629Z,25.71
2023-06-30T18:13:15.248Z,25.67
2023-06-30T18:14:47.137Z,25.66
2023-06-30T18:16:20.947Z,25.65
2023-06-30T18:17:52.957Z,25.56
2023-06-30T18:19:24.694Z,25.43
2023-06-30T18:20:56.508Z,25.32
2023-06-30T18:22:28.162Z,25.21
2023-06-30T18:23:59.985Z,25.17
2023-06-30T18:25:31.545Z,25.12
2023-06-30T18:27:03.450Z,25.09
2023-06-30T18:28:35.297Z,25.00
2023-06-30T18:30:08.152Z,24.96
2023-06-30T18:31:39.918Z,24.88
2023-06-30T18:33:11.566Z,24.79
2023-06-30T18:34:45.783Z,24.66
2023-06-30T18:36:19.455Z,24.59
2023-06-30T18:37:51.250Z,24.55
2023-06-30T18:39:22.857Z,24.49
2023-06-30T18:40:54.778Z,24.48
2023-06-30T18:42:26.705Z,24.46
2023-06-30T18:43:58.772Z,24.43
2023-06-30T18:47:02.044Z,24.35
2023-06-30T18:48:33.692Z,24.33
2023-06-30T18:50:05.946Z,24.31
2023-06-30T18:51:37.831Z,24.27
2023-06-30T18:53:09.448Z,24.19
2023-06-30T18:54:41.856Z,24.16
2023-06-30T18:56:13.683Z,24.14
2023-06-30T18:57:45.291Z,24.12
2023-06-30T18:59:17.497Z,24.02
2023-06-30T19:00:49.565Z,23.96
2023-06-30T19:02:23.076Z,23.86
2023-06-30T19:03:55.699Z,23.81
2023-06-30T19:05:27.698Z,23.74
2023-06-30T19:06:59.752Z,23.71
2023-06-30T19:08:31.651Z,23.71
2023-06-30T19:10:03.869Z,23.71
2023-06-30T19:11:36.327Z,23.71
2023-06-30T19:13:10.852Z,23.71
2023-06-30T19:14:42.818Z,23.69
2023-06-30T19:16:14.904Z,23.68
2023-06-30T19:17:51.599Z,23.68
2023-06-30T19:19:24.952Z,23.68
2023-06-30T19:20:56.740Z,23.64
2023-06-30T19:22:28.369Z,23.63
2023-06-30T19:24:03.060Z,23.62
2023-06-30T19:25:37.415Z,23.62
2023-06-30T19:27:09.436Z,23.56
2023-06-30T19:28:44.778Z,23.49
2023-06-30T19:30:17.538Z,23.48
2023-06-30T19:31:51.544Z,23.44
2023-06-30T19:33:29.790Z,23.43
2023-06-30T19:35:10.730Z,23.35
2023-06-30T19:36:42.636Z,23.33
2023-06-30T19:38:14.512Z,23.34
2023-06-30T19:39:46.991Z,23.32
2023-06-30T19:41:21.286Z,23.33
2023-06-30T19:42:53.109Z,23.33
2023-06-30T19:44:25.314Z,23.31
2023-06-30T19:45:57.417Z,23.31
2023-06-30T19:47:29.461Z,23.30
2023-06-30T19:49:05.183Z,23.28
2023-06-30T19:51:08.024Z,23.31
2023-06-30T19:54:27.903Z,23.34
2023-06-30T19:56:02.609Z,23.32
2023-06-30T19:57:44.184Z,23.27
2023-06-30T19:59:23.388Z,23.22
2023-06-30T20:01:19.849Z,23.13
2023-06-30T20:05:21.896Z,22.89
2023-06-30T20:06:56.347Z,22.81